sensor_id;sensor_type;location;lat;lon;timestamp;P1;durP1;ratioP1;P2;durP2;ratioP2
65656;SDS011;57397;50.096;14.404;2023-01-29T00:01:58;4.53;;;3.15;;
65656;SDS011;57397;50.096;14.404;2023-01-29T00:04:23;4.38;;;3.30;;
65656;SDS011;57397;50.096;14.404;2023-01-29T00:06:49;3.97;;;3.05;;
65656;SDS011;57397;50.096;14.404;2023-01-29T00:09:15;4.35;;;3.25;;
65656;SDS011;57397;50.096;14.404;2023-01-29T00:11:40;3.97;;;3.10;;
65656;SDS011;57397;50.096;14.404;2023-01-29T00:14:06;4.97;;;3.10;;
65656;SDS011;57397;50.096;14.404;2023-01-29T00:16:32;4.00;;;3.03;;
65656;SDS011;57397;50.096;14.404;2023-01-29T00:18:57;4.93;;;3.05;;
65656;SDS011;57397;50.096;14.404;2023-01-29T00:21:23;4.72;;;3.13;;
65656;SDS011;57397;50.096;14.404;2023-01-29T00:23:49;4.35;;;3.15;;
65656;SDS011;57397;50.096;14.404;2023-01-29T00:26:15;4.28;;;2.80;;
65656;SDS011;57397;50.096;14.404;2023-01-29T00:28:41;3.90;;;3.10;;
65656;SDS011;57397;50.096;14.404;2023-01-29T00:31:10;3.97;;;2.90;;
65656;SDS011;57397;50.096;14.404;2023-01-29T00:33:38;4.15;;;3.13;;
65656;SDS011;57397;50.096;14.404;2023-01-29T00:36:07;4.00;;;2.90;;
65656;SDS011;57397;50.096;14.404;2023-01-29T00:38:37;3.95;;;3.03;;
65656;SDS011;57397;50.096;14.404;2023-01-29T00:41:06;4.05;;;2.85;;
65656;SDS011;57397;50.096;14.404;2023-01-29T00:44:00;4.10;;;2.90;;
65656;SDS011;57397;50.096;14.404;2023-01-29T00:46:44;5.00;;;3.10;;
65656;SDS011;57397;50.096;14.404;2023-01-29T00:49:10;3.78;;;2.70;;
65656;SDS011;57397;50.096;14.404;2023-01-29T00:51:36;3.55;;;2.58;;
65656;SDS011;57397;50.096;14.404;2023-01-29T00:54:02;4.07;;;2.95;;
65656;SDS011;57397;50.096;14.404;2023-01-29T00:56:31;3.58;;;2.78;;
65656;SDS011;57397;50.096;14.404;2023-01-29T00:58:56;4.38;;;3.03;;
65656;SDS011;57397;50.096;14.404;2023-01-29T01:01:22;4.45;;;2.85;;
65656;SDS011;57397;50.096;14.404;2023-01-29T01:04:08;4.78;;;2.88;;
65656;SDS011;57397;50.096;14.404;2023-01-29T01:06:39;3.92;;;2.70;;
65656;SDS011;57397;50.096;14.404;2023-01-29T01:09:09;3.03;;;2.50;;
65656;SDS011;57397;50.096;14.404;2023-01-29T01:11:53;4.30;;;3.10;;
65656;SDS011;57397;50.096;14.404;2023-01-29T01:14:19;4.65;;;3.05;;
65656;SDS011;57397;50.096;14.404;2023-01-29T01:16:45;4.38;;;2.92;;
65656;SDS011;57397;50.096;14.404;2023-01-29T01:19:12;4.53;;;3.00;;
65656;SDS011;57397;50.096;14.404;2023-01-29T01:21:38;4.07;;;2.78;;
65656;SDS011;57397;50.096;14.404;2023-01-29T01:24:04;3.50;;;2.70;;
65656;SDS011;57397;50.096;14.404;2023-01-29T01:26:31;3.45;;;2.60;;
65656;SDS011;57397;50.096;14.404;2023-01-29T01:28:57;4.47;;;2.88;;
65656;SDS011;57397;50.096;14.404;2023-01-29T01:31:22;4.03;;;2.58;;
65656;SDS011;57397;50.096;14.404;2023-01-29T01:33:48;3.90;;;2.63;;
65656;SDS011;57397;50.096;14.404;2023-01-29T01:36:15;4.60;;;2.88;;
65656;SDS011;57397;50.096;14.404;2023-01-29T01:38:41;3.75;;;2.70;;
65656;SDS011;57397;50.096;14.404;2023-01-29T01:41:10;4.55;;;2.60;;
65656;SDS011;57397;50.096;14.404;2023-01-29T01:46:22;4.53;;;2.95;;
65656;SDS011;57397;50.096;14.404;2023-01-29T01:48:53;3.85;;;2.63;;
65656;SDS011;57397;50.096;14.404;2023-01-29T01:51:22;4.00;;;3.03;;
65656;SDS011;57397;50.096;14.404;2023-01-29T01:53:54;3.75;;;2.85;;
65656;SDS011;57397;50.096;14.404;2023-01-29T01:56:26;4.47;;;3.10;;
65656;SDS011;57397;50.096;14.404;2023-01-29T01:59:02;3.97;;;2.80;;
65656;SDS011;57397;50.096;14.404;2023-01-29T02:01:28;3.35;;;2.70;;
65656;SDS011;57397;50.096;14.404;2023-01-29T02:03:59;4.43;;;3.17;;
65656;SDS011;57397;50.096;14.404;2023-01-29T02:06:44;4.43;;;3.03;;
65656;SDS011;57397;50.096;14.404;2023-01-29T02:09:33;4.53;;;3.38;;
65656;SDS011;57397;50.096;14.404;2023-01-29T02:12:10;3.92;;;3.08;;
65656;SDS011;57397;50.096;14.404;2023-01-29T02:14:37;4.25;;;2.97;;
65656;SDS011;57397;50.096;14.404;2023-01-29T02:17:04;5.82;;;3.30;;
65656;SDS011;57397;50.096;14.404;2023-01-29T02:19:36;4.03;;;3.17;;
65656;SDS011;57397;50.096;14.404;2023-01-29T02:30:35;4.03;;;3.08;;
65656;SDS011;57397;50.096;14.404;2023-01-29T02:33:13;4.38;;;2.97;;
65656;SDS011;57397;50.096;14.404;2023-01-29T02:44:19;4.50;;;3.28;;
65656;SDS011;57397;50.096;14.404;2023-01-29T02:47:00;6.17;;;3.90;;
65656;SDS011;57397;50.096;14.404;2023-01-29T02:49:46;5.65;;;3.58;;
65656;SDS011;57397;50.096;14.404;2023-01-29T02:57:33;5.68;;;3.97;;
65656;SDS011;57397;50.096;14.404;2023-01-29T03:00:06;6.53;;;3.88;;
65656;SDS011;57397;50.096;14.404;2023-01-29T03:05:09;5.65;;;3.92;;
65656;SDS011;57397;50.096;14.404;2023-01-29T03:07:40;5.43;;;3.33;;
65656;SDS011;57397;50.096;14.404;2023-01-29T03:10:33;4.80;;;3.42;;
65656;SDS011;57397;50.096;14.404;2023-01-29T03:13:02;5.68;;;3.70;;
65656;SDS011;57397;50.096;14.404;2023-01-29T03:15:41;4.88;;;3.47;;
65656;SDS011;57397;50.096;14.404;2023-01-29T03:18:12;4.70;;;3.10;;
65656;SDS011;57397;50.096;14.404;2023-01-29T03:20:42;5.25;;;3.40;;
65656;SDS011;57397;50.096;14.404;2023-01-29T03:23:22;5.45;;;3.10;;
65656;SDS011;57397;50.096;14.404;2023-01-29T03:25:54;4.78;;;3.15;;
65656;SDS011;57397;50.096;14.404;2023-01-29T03:28:41;4.60;;;3.28;;
65656;SDS011;57397;50.096;14.404;2023-01-29T03:31:30;3.67;;;2.70;;
65656;SDS011;57397;50.096;14.404;2023-01-29T03:34:16;3.70;;;2.78;;
65656;SDS011;57397;50.096;14.404;2023-01-29T03:36:58;4.70;;;3.08;;
65656;SDS011;57397;50.096;14.404;2023-01-29T03:39:26;3.97;;;2.85;;
65656;SDS011;57397;50.096;14.404;2023-01-29T03:42:15;3.97;;;2.67;;
65656;SDS011;57397;50.096;14.404;2023-01-29T03:52:58;3.35;;;2.60;;
65656;SDS011;57397;50.096;14.404;2023-01-29T03:56:05;3.55;;;2.47;;
65656;SDS011;57397;50.096;14.404;2023-01-29T03:58:33;3.10;;;2.45;;
65656;SDS011;57397;50.096;14.404;2023-01-29T04:01:02;5.18;;;2.72;;
65656;SDS011;57397;50.096;14.404;2023-01-29T04:03:39;3.33;;;2.43;;
65656;SDS011;57397;50.096;14.404;2023-01-29T04:06:12;3.72;;;2.60;;
65656;SDS011;57397;50.096;14.404;2023-01-29T04:11:25;3.58;;;2.70;;
65656;SDS011;57397;50.096;14.404;2023-01-29T04:13:51;3.15;;;2.40;;
65656;SDS011;57397;50.096;14.404;2023-01-29T04:16:21;4.65;;;2.60;;
65656;SDS011;57397;50.096;14.404;2023-01-29T04:18:50;3.88;;;2.35;;
65656;SDS011;57397;50.096;14.404;2023-01-29T04:21:16;4.90;;;2.50;;
65656;SDS011;57397;50.096;14.404;2023-01-29T04:23:43;3.30;;;2.20;;
65656;SDS011;57397;50.096;14.404;2023-01-29T04:32:02;4.22;;;2.60;;
65656;SDS011;57397;50.096;14.404;2023-01-29T04:34:43;3.17;;;2.45;;
65656;SDS011;57397;50.096;14.404;2023-01-29T04:40:22;4.10;;;2.45;;
65656;SDS011;57397;50.096;14.404;2023-01-29T04:50:46;3.78;;;2.25;;
65656;SDS011;57397;50.096;14.404;2023-01-29T04:53:22;3.80;;;2.50;;
65656;SDS011;57397;50.096;14.404;2023-01-29T04:55:50;3.40;;;2.40;;
65656;SDS011;57397;50.096;14.404;2023-01-29T04:59:15;4.20;;;2.50;;
65656;SDS011;57397;50.096;14.404;2023-01-29T05:01:25;3.35;;;2.28;;
65656;SDS011;57397;50.096;14.404;2023-01-29T05:03:53;3.17;;;2.38;;
65656;SDS011;57397;50.096;14.404;2023-01-29T05:06:20;2.95;;;2.28;;
65656;SDS011;57397;50.096;14.404;2023-01-29T05:08:46;2.97;;;2.05;;
65656;SDS011;57397;50.096;14.404;2023-01-29T05:11:12;4.40;;;2.60;;
65656;SDS011;57397;50.096;14.404;2023-01-29T05:13:38;3.53;;;2.20;;
65656;SDS011;57397;50.096;14.404;2023-01-29T05:16:13;3.78;;;2.42;;
65656;SDS011;57397;50.096;14.404;2023-01-29T05:18:44;3.05;;;2.33;;
65656;SDS011;57397;50.096;14.404;2023-01-29T05:21:10;3.95;;;2.83;;
65656;SDS011;57397;50.096;14.404;2023-01-29T05:23:35;3.47;;;2.63;;
65656;SDS011;57397;50.096;14.404;2023-01-29T05:26:02;3.75;;;2.40;;
65656;SDS011;57397;50.096;14.404;2023-01-29T05:28:28;3.63;;;2.40;;
65656;SDS011;57397;50.096;14.404;2023-01-29T05:30:54;4.43;;;2.50;;
65656;SDS011;57397;50.096;14.404;2023-01-29T05:35:47;3.13;;;2.30;;
65656;SDS011;57397;50.096;14.404;2023-01-29T05:38:14;3.88;;;2.80;;
65656;SDS011;57397;50.096;14.404;2023-01-29T05:40:40;3.33;;;2.45;;
65656;SDS011;57397;50.096;14.404;2023-01-29T05:43:11;4.63;;;3.00;;
65656;SDS011;57397;50.096;14.404;2023-01-29T05:45:41;4.18;;;2.80;;
65656;SDS011;57397;50.096;14.404;2023-01-29T05:48:07;3.55;;;2.55;;
65656;SDS011;57397;50.096;14.404;2023-01-29T05:50:33;3.55;;;2.63;;
65656;SDS011;57397;50.096;14.404;2023-01-29T05:52:58;3.35;;;2.58;;
65656;SDS011;57397;50.096;14.404;2023-01-29T05:55:25;3.47;;;2.60;;
65656;SDS011;57397;50.096;14.404;2023-01-29T05:57:53;4.00;;;2.78;;
65656;SDS011;57397;50.096;14.404;2023-01-29T06:00:18;3.38;;;2.92;;
65656;SDS011;57397;50.096;14.404;2023-01-29T06:02:44;3.60;;;2.75;;
65656;SDS011;57397;50.096;14.404;2023-01-29T06:05:10;3.58;;;2.60;;
65656;SDS011;57397;50.096;14.404;2023-01-29T06:07:35;3.83;;;2.83;;
65656;SDS011;57397;50.096;14.404;2023-01-29T06:10:01;4.28;;;2.72;;
65656;SDS011;57397;50.096;14.404;2023-01-29T06:12:27;3.92;;;2.50;;
65656;SDS011;57397;50.096;14.404;2023-01-29T06:14:53;3.97;;;2.88;;
65656;SDS011;57397;50.096;14.404;2023-01-29T06:17:18;4.15;;;3.08;;
65656;SDS011;57397;50.096;14.404;2023-01-29T06:19:44;3.40;;;2.60;;
65656;SDS011;57397;50.096;14.404;2023-01-29T06:22:09;3.58;;;2.80;;
65656;SDS011;57397;50.096;14.404;2023-01-29T06:24:35;4.93;;;2.80;;
65656;SDS011;57397;50.096;14.404;2023-01-29T06:27:00;4.13;;;2.75;;
65656;SDS011;57397;50.096;14.404;2023-01-29T06:29:26;3.45;;;2.60;;
65656;SDS011;57397;50.096;14.404;2023-01-29T06:31:51;4.10;;;2.60;;
65656;SDS011;57397;50.096;14.404;2023-01-29T06:34:17;3.53;;;2.60;;
65656;SDS011;57397;50.096;14.404;2023-01-29T06:36:42;3.42;;;2.63;;
65656;SDS011;57397;50.096;14.404;2023-01-29T06:39:08;4.15;;;2.90;;
65656;SDS011;57397;50.096;14.404;2023-01-29T06:41:33;4.05;;;2.80;;
65656;SDS011;57397;50.096;14.404;2023-01-29T06:43:59;4.10;;;2.80;;
65656;SDS011;57397;50.096;14.404;2023-01-29T06:46:24;4.05;;;2.67;;
65656;SDS011;57397;50.096;14.404;2023-01-29T06:48:52;3.13;;;2.45;;
65656;SDS011;57397;50.096;14.404;2023-01-29T06:51:18;3.65;;;2.40;;
65656;SDS011;57397;50.096;14.404;2023-01-29T06:53:45;4.47;;;2.85;;
65656;SDS011;57397;50.096;14.404;2023-01-29T06:56:10;4.00;;;2.63;;
65656;SDS011;57397;50.096;14.404;2023-01-29T06:58:36;3.70;;;2.60;;
65656;SDS011;57397;50.096;14.404;2023-01-29T07:01:03;5.47;;;2.95;;
65656;SDS011;57397;50.096;14.404;2023-01-29T07:03:29;3.42;;;2.40;;
65656;SDS011;57397;50.096;14.404;2023-01-29T07:05:55;3.92;;;2.70;;
65656;SDS011;57397;50.096;14.404;2023-01-29T07:08:20;5.68;;;3.00;;
65656;SDS011;57397;50.096;14.404;2023-01-29T07:10:47;4.47;;;3.08;;
65656;SDS011;57397;50.096;14.404;2023-01-29T07:13:13;4.18;;;2.80;;
65656;SDS011;57397;50.096;14.404;2023-01-29T07:15:38;4.20;;;3.20;;
65656;SDS011;57397;50.096;14.404;2023-01-29T07:18:03;5.93;;;3.00;;
65656;SDS011;57397;50.096;14.404;2023-01-29T07:20:36;3.47;;;2.47;;
65656;SDS011;57397;50.096;14.404;2023-01-29T07:23:02;4.63;;;3.00;;
65656;SDS011;57397;50.096;14.404;2023-01-29T07:25:28;4.20;;;3.10;;
65656;SDS011;57397;50.096;14.404;2023-01-29T07:27:54;4.72;;;2.83;;
65656;SDS011;57397;50.096;14.404;2023-01-29T07:30:20;4.20;;;2.85;;
65656;SDS011;57397;50.096;14.404;2023-01-29T07:32:46;4.85;;;2.90;;
65656;SDS011;57397;50.096;14.404;2023-01-29T07:35:11;4.63;;;3.22;;
65656;SDS011;57397;50.096;14.404;2023-01-29T07:37:37;4.32;;;3.20;;
65656;SDS011;57397;50.096;14.404;2023-01-29T07:40:03;3.95;;;2.97;;
65656;SDS011;57397;50.096;14.404;2023-01-29T07:42:34;5.20;;;2.78;;
65656;SDS011;57397;50.096;14.404;2023-01-29T07:44:59;4.53;;;3.00;;
65656;SDS011;57397;50.096;14.404;2023-01-29T07:47:25;4.60;;;3.25;;
65656;SDS011;57397;50.096;14.404;2023-01-29T07:49:50;5.45;;;3.58;;
65656;SDS011;57397;50.096;14.404;2023-01-29T07:52:16;5.47;;;3.40;;
65656;SDS011;57397;50.096;14.404;2023-01-29T07:54:42;9.82;;;3.47;;
65656;SDS011;57397;50.096;14.404;2023-01-29T07:57:08;7.40;;;4.05;;
65656;SDS011;57397;50.096;14.404;2023-01-29T07:59:34;6.00;;;3.80;;
65656;SDS011;57397;50.096;14.404;2023-01-29T08:01:59;7.30;;;3.90;;
65656;SDS011;57397;50.096;14.404;2023-01-29T08:04:25;7.80;;;4.20;;
65656;SDS011;57397;50.096;14.404;2023-01-29T08:06:50;7.55;;;4.10;;
65656;SDS011;57397;50.096;14.404;2023-01-29T08:09:16;6.57;;;3.80;;
65656;SDS011;57397;50.096;14.404;2023-01-29T08:11:41;6.50;;;4.10;;
65656;SDS011;57397;50.096;14.404;2023-01-29T08:14:07;7.22;;;4.35;;
65656;SDS011;57397;50.096;14.404;2023-01-29T08:16:34;8.75;;;4.30;;
65656;SDS011;57397;50.096;14.404;2023-01-29T08:19:00;9.02;;;5.15;;
65656;SDS011;57397;50.096;14.404;2023-01-29T08:21:27;12.15;;;5.70;;
65656;SDS011;57397;50.096;14.404;2023-01-29T08:23:53;11.52;;;5.50;;
65656;SDS011;57397;50.096;14.404;2023-01-29T08:26:19;11.15;;;5.15;;
65656;SDS011;57397;50.096;14.404;2023-01-29T08:28:45;11.90;;;5.78;;
65656;SDS011;57397;50.096;14.404;2023-01-29T08:31:16;9.93;;;4.65;;
65656;SDS011;57397;50.096;14.404;2023-01-29T08:33:44;9.77;;;5.05;;
65656;SDS011;57397;50.096;14.404;2023-01-29T08:36:10;8.23;;;4.97;;
65656;SDS011;57397;50.096;14.404;2023-01-29T08:38:36;9.05;;;5.57;;
65656;SDS011;57397;50.096;14.404;2023-01-29T08:41:02;9.68;;;5.15;;
65656;SDS011;57397;50.096;14.404;2023-01-29T08:43:28;9.10;;;4.50;;
65656;SDS011;57397;50.096;14.404;2023-01-29T08:45:53;9.88;;;4.80;;
65656;SDS011;57397;50.096;14.404;2023-01-29T08:48:19;8.75;;;4.65;;
65656;SDS011;57397;50.096;14.404;2023-01-29T08:50:44;7.00;;;4.13;;
65656;SDS011;57397;50.096;14.404;2023-01-29T08:53:10;6.78;;;4.38;;
65656;SDS011;57397;50.096;14.404;2023-01-29T08:55:38;7.15;;;4.45;;
65656;SDS011;57397;50.096;14.404;2023-01-29T08:58:05;8.55;;;4.60;;
65656;SDS011;57397;50.096;14.404;2023-01-29T09:00:37;6.80;;;4.28;;
65656;SDS011;57397;50.096;14.404;2023-01-29T09:03:02;8.48;;;4.30;;
65656;SDS011;57397;50.096;14.404;2023-01-29T09:05:29;8.63;;;4.88;;
65656;SDS011;57397;50.096;14.404;2023-01-29T09:07:58;8.63;;;4.78;;
65656;SDS011;57397;50.096;14.404;2023-01-29T09:10:23;12.38;;;6.45;;
65656;SDS011;57397;50.096;14.404;2023-01-29T09:12:49;15.10;;;7.88;;
65656;SDS011;57397;50.096;14.404;2023-01-29T09:15:14;13.15;;;7.30;;
65656;SDS011;57397;50.096;14.404;2023-01-29T09:17:40;12.70;;;6.88;;
65656;SDS011;57397;50.096;14.404;2023-01-29T09:20:06;13.10;;;6.75;;
65656;SDS011;57397;50.096;14.404;2023-01-29T09:22:32;12.82;;;6.82;;
65656;SDS011;57397;50.096;14.404;2023-01-29T09:24:58;10.63;;;6.32;;
65656;SDS011;57397;50.096;14.404;2023-01-29T09:27:23;10.30;;;6.05;;
65656;SDS011;57397;50.096;14.404;2023-01-29T09:29:49;11.65;;;5.90;;
65656;SDS011;57397;50.096;14.404;2023-01-29T09:32:14;10.02;;;5.38;;
65656;SDS011;57397;50.096;14.404;2023-01-29T09:34:40;9.30;;;4.80;;
65656;SDS011;57397;50.096;14.404;2023-01-29T09:37:05;8.63;;;4.85;;
65656;SDS011;57397;50.096;14.404;2023-01-29T09:39:31;8.43;;;5.00;;
65656;SDS011;57397;50.096;14.404;2023-01-29T09:42:07;8.30;;;4.47;;
65656;SDS011;57397;50.096;14.404;2023-01-29T09:47:28;7.95;;;4.40;;
65656;SDS011;57397;50.096;14.404;2023-01-29T09:50:06;6.25;;;4.13;;
65656;SDS011;57397;50.096;14.404;2023-01-29T09:52:40;7.32;;;4.38;;
65656;SDS011;57397;50.096;14.404;2023-01-29T10:19:36;5.90;;;3.63;;
65656;SDS011;57397;50.096;14.404;2023-01-29T10:24:49;5.47;;;3.53;;
65656;SDS011;57397;50.096;14.404;2023-01-29T10:27:18;6.22;;;3.53;;
65656;SDS011;57397;50.096;14.404;2023-01-29T10:29:46;5.15;;;3.17;;
65656;SDS011;57397;50.096;14.404;2023-01-29T10:32:14;5.13;;;3.28;;
65656;SDS011;57397;50.096;14.404;2023-01-29T10:37:18;5.07;;;3.25;;
65656;SDS011;57397;50.096;14.404;2023-01-29T10:39:48;5.38;;;3.70;;
65656;SDS011;57397;50.096;14.404;2023-01-29T10:42:25;5.70;;;3.40;;
65656;SDS011;57397;50.096;14.404;2023-01-29T10:45:15;5.07;;;3.10;;
65656;SDS011;57397;50.096;14.404;2023-01-29T10:50:49;5.13;;;3.33;;
65656;SDS011;57397;50.096;14.404;2023-01-29T10:59:28;5.07;;;2.78;;
65656;SDS011;57397;50.096;14.404;2023-01-29T11:02:11;4.78;;;3.08;;
65656;SDS011;57397;50.096;14.404;2023-01-29T11:04:43;4.60;;;2.92;;
65656;SDS011;57397;50.096;14.404;2023-01-29T11:07:09;5.28;;;3.30;;
65656;SDS011;57397;50.096;14.404;2023-01-29T11:09:41;4.88;;;3.28;;
65656;SDS011;57397;50.096;14.404;2023-01-29T11:12:12;4.13;;;2.78;;
65656;SDS011;57397;50.096;14.404;2023-01-29T11:14:50;4.15;;;3.03;;
65656;SDS011;57397;50.096;14.404;2023-01-29T11:17:19;4.00;;;2.85;;
65656;SDS011;57397;50.096;14.404;2023-01-29T11:19:47;4.25;;;3.10;;
65656;SDS011;57397;50.096;14.404;2023-01-29T11:28:17;6.40;;;3.47;;
65656;SDS011;57397;50.096;14.404;2023-01-29T11:30:38;6.20;;;3.53;;
65656;SDS011;57397;50.096;14.404;2023-01-29T11:33:08;6.03;;;3.90;;
65656;SDS011;57397;50.096;14.404;2023-01-29T11:35:48;7.00;;;3.97;;
65656;SDS011;57397;50.096;14.404;2023-01-29T11:40:42;6.93;;;3.78;;
65656;SDS011;57397;50.096;14.404;2023-01-29T11:43:17;8.10;;;4.07;;
65656;SDS011;57397;50.096;14.404;2023-01-29T11:45:55;7.00;;;4.20;;
65656;SDS011;57397;50.096;14.404;2023-01-29T11:48:25;6.90;;;3.78;;
65656;SDS011;57397;50.096;14.404;2023-01-29T11:53:34;6.63;;;3.63;;
65656;SDS011;57397;50.096;14.404;2023-01-29T11:56:02;7.15;;;3.65;;
65656;SDS011;57397;50.096;14.404;2023-01-29T11:58:31;8.18;;;4.05;;
65656;SDS011;57397;50.096;14.404;2023-01-29T12:00:58;7.20;;;3.65;;
65656;SDS011;57397;50.096;14.404;2023-01-29T12:03:34;5.80;;;3.30;;
65656;SDS011;57397;50.096;14.404;2023-01-29T12:09:10;5.40;;;3.40;;
65656;SDS011;57397;50.096;14.404;2023-01-29T12:11:44;4.05;;;3.25;;
65656;SDS011;57397;50.096;14.404;2023-01-29T12:17:05;4.70;;;3.15;;
65656;SDS011;57397;50.096;14.404;2023-01-29T12:22:13;5.53;;;3.40;;
65656;SDS011;57397;50.096;14.404;2023-01-29T12:27:21;5.57;;;3.65;;
65656;SDS011;57397;50.096;14.404;2023-01-29T12:29:57;6.28;;;3.90;;
65656;SDS011;57397;50.096;14.404;2023-01-29T12:32:42;6.07;;;3.88;;
65656;SDS011;57397;50.096;14.404;2023-01-29T12:35:18;6.30;;;3.60;;
65656;SDS011;57397;50.096;14.404;2023-01-29T12:37:48;6.97;;;3.85;;
65656;SDS011;57397;50.096;14.404;2023-01-29T12:40:39;6.20;;;3.80;;
65656;SDS011;57397;50.096;14.404;2023-01-29T12:43:23;8.40;;;4.50;;
65656;SDS011;57397;50.096;14.404;2023-01-29T12:45:59;7.85;;;4.07;;
65656;SDS011;57397;50.096;14.404;2023-01-29T12:48:31;7.82;;;4.57;;
65656;SDS011;57397;50.096;14.404;2023-01-29T12:51:03;7.65;;;4.43;;
65656;SDS011;57397;50.096;14.404;2023-01-29T12:53:53;8.55;;;4.60;;
65656;SDS011;57397;50.096;14.404;2023-01-29T12:56:47;7.45;;;4.30;;
65656;SDS011;57397;50.096;14.404;2023-01-29T13:04:55;7.03;;;4.32;;
65656;SDS011;57397;50.096;14.404;2023-01-29T13:07:35;6.63;;;4.10;;
65656;SDS011;57397;50.096;14.404;2023-01-29T13:10:06;5.68;;;3.72;;
65656;SDS011;57397;50.096;14.404;2023-01-29T13:12:39;6.43;;;3.83;;
65656;SDS011;57397;50.096;14.404;2023-01-29T13:17:50;6.07;;;4.00;;
65656;SDS011;57397;50.096;14.404;2023-01-29T13:20:21;7.43;;;3.92;;
65656;SDS011;57397;50.096;14.404;2023-01-29T13:22:53;6.43;;;3.95;;
65656;SDS011;57397;50.096;14.404;2023-01-29T13:25:24;5.35;;;3.42;;
65656;SDS011;57397;50.096;14.404;2023-01-29T13:27:53;5.75;;;3.75;;
65656;SDS011;57397;50.096;14.404;2023-01-29T13:30:23;5.10;;;3.80;;
65656;SDS011;57397;50.096;14.404;2023-01-29T13:32:50;5.60;;;3.58;;
65656;SDS011;57397;50.096;14.404;2023-01-29T13:35:17;6.13;;;3.75;;
65656;SDS011;57397;50.096;14.404;2023-01-29T13:37:54;5.53;;;3.80;;
65656;SDS011;57397;50.096;14.404;2023-01-29T13:40:25;5.30;;;3.55;;
65656;SDS011;57397;50.096;14.404;2023-01-29T13:42:52;6.38;;;4.13;;
65656;SDS011;57397;50.096;14.404;2023-01-29T13:45:24;5.82;;;3.70;;
65656;SDS011;57397;50.096;14.404;2023-01-29T13:48:16;6.30;;;3.72;;
65656;SDS011;57397;50.096;14.404;2023-01-29T13:51:05;5.30;;;3.40;;
65656;SDS011;57397;50.096;14.404;2023-01-29T13:53:40;5.32;;;3.13;;
65656;SDS011;57397;50.096;14.404;2023-01-29T13:59:19;4.82;;;3.60;;
65656;SDS011;57397;50.096;14.404;2023-01-29T14:06:55;5.38;;;3.47;;
65656;SDS011;57397;50.096;14.404;2023-01-29T14:09:29;4.95;;;3.08;;
65656;SDS011;57397;50.096;14.404;2023-01-29T14:11:59;4.50;;;3.33;;
65656;SDS011;57397;50.096;14.404;2023-01-29T14:17:11;5.43;;;3.45;;
65656;SDS011;57397;50.096;14.404;2023-01-29T14:19:50;4.13;;;3.15;;
65656;SDS011;57397;50.096;14.404;2023-01-29T14:22:23;4.85;;;3.20;;
65656;SDS011;57397;50.096;14.404;2023-01-29T14:24:53;5.40;;;3.25;;
65656;SDS011;57397;50.096;14.404;2023-01-29T14:27:21;4.90;;;3.10;;
65656;SDS011;57397;50.096;14.404;2023-01-29T14:29:49;5.05;;;3.22;;
65656;SDS011;57397;50.096;14.404;2023-01-29T14:32:23;5.25;;;3.15;;
65656;SDS011;57397;50.096;14.404;2023-01-29T14:34:50;3.72;;;2.95;;
65656;SDS011;57397;50.096;14.404;2023-01-29T14:37:25;4.25;;;3.00;;
65656;SDS011;57397;50.096;14.404;2023-01-29T14:39:56;4.70;;;2.90;;
65656;SDS011;57397;50.096;14.404;2023-01-29T14:42:24;4.50;;;3.05;;
65656;SDS011;57397;50.096;14.404;2023-01-29T14:44:59;4.20;;;3.10;;
65656;SDS011;57397;50.096;14.404;2023-01-29T14:58:16;5.55;;;3.40;;
65656;SDS011;57397;50.096;14.404;2023-01-29T15:00:44;4.32;;;3.20;;
65656;SDS011;57397;50.096;14.404;2023-01-29T15:03:18;4.97;;;3.17;;
65656;SDS011;57397;50.096;14.404;2023-01-29T15:05:51;5.40;;;3.38;;
65656;SDS011;57397;50.096;14.404;2023-01-29T15:11:13;5.00;;;3.42;;
65656;SDS011;57397;50.096;14.404;2023-01-29T15:14:11;4.07;;;2.90;;
65656;SDS011;57397;50.096;14.404;2023-01-29T15:16:41;5.57;;;3.55;;
65656;SDS011;57397;50.096;14.404;2023-01-29T15:19:13;4.70;;;3.30;;
65656;SDS011;57397;50.096;14.404;2023-01-29T15:24:35;5.80;;;3.50;;
65656;SDS011;57397;50.096;14.404;2023-01-29T15:27:01;4.55;;;3.40;;
65656;SDS011;57397;50.096;14.404;2023-01-29T15:29:27;4.85;;;3.10;;
65656;SDS011;57397;50.096;14.404;2023-01-29T15:31:53;4.68;;;3.25;;
65656;SDS011;57397;50.096;14.404;2023-01-29T15:34:19;4.50;;;3.22;;
65656;SDS011;57397;50.096;14.404;2023-01-29T15:36:46;4.70;;;3.15;;
65656;SDS011;57397;50.096;14.404;2023-01-29T15:39:22;5.68;;;3.20;;
65656;SDS011;57397;50.096;14.404;2023-01-29T15:41:49;5.50;;;3.60;;
65656;SDS011;57397;50.096;14.404;2023-01-29T15:44:17;5.07;;;3.35;;
65656;SDS011;57397;50.096;14.404;2023-01-29T15:46:54;4.88;;;3.75;;
65656;SDS011;57397;50.096;14.404;2023-01-29T15:49:31;5.40;;;3.42;;
65656;SDS011;57397;50.096;14.404;2023-01-29T15:51:59;5.20;;;3.58;;
65656;SDS011;57397;50.096;14.404;2023-01-29T15:54:30;4.93;;;3.40;;
65656;SDS011;57397;50.096;14.404;2023-01-29T15:56:57;4.70;;;3.40;;
65656;SDS011;57397;50.096;14.404;2023-01-29T15:59:28;5.88;;;3.70;;
65656;SDS011;57397;50.096;14.404;2023-01-29T16:02:13;6.22;;;4.03;;
65656;SDS011;57397;50.096;14.404;2023-01-29T16:05:13;5.93;;;4.10;;
65656;SDS011;57397;50.096;14.404;2023-01-29T16:07:41;8.35;;;4.63;;
65656;SDS011;57397;50.096;14.404;2023-01-29T16:10:12;6.95;;;4.38;;
65656;SDS011;57397;50.096;14.404;2023-01-29T16:12:40;6.45;;;4.57;;
65656;SDS011;57397;50.096;14.404;2023-01-29T16:15:06;7.57;;;4.45;;
65656;SDS011;57397;50.096;14.404;2023-01-29T16:17:39;5.90;;;4.10;;
65656;SDS011;57397;50.096;14.404;2023-01-29T16:20:06;6.18;;;4.50;;
65656;SDS011;57397;50.096;14.404;2023-01-29T16:22:43;6.25;;;4.30;;
65656;SDS011;57397;50.096;14.404;2023-01-29T16:25:11;6.57;;;4.18;;
65656;SDS011;57397;50.096;14.404;2023-01-29T16:27:39;6.75;;;4.20;;
65656;SDS011;57397;50.096;14.404;2023-01-29T16:30:09;6.70;;;4.00;;
65656;SDS011;57397;50.096;14.404;2023-01-29T16:32:38;6.10;;;4.18;;
65656;SDS011;57397;50.096;14.404;2023-01-29T16:35:04;7.10;;;4.07;;
65656;SDS011;57397;50.096;14.404;2023-01-29T16:37:33;6.95;;;4.05;;
65656;SDS011;57397;50.096;14.404;2023-01-29T16:40:08;6.45;;;3.95;;
65656;SDS011;57397;50.096;14.404;2023-01-29T16:42:38;6.13;;;4.13;;
65656;SDS011;57397;50.096;14.404;2023-01-29T16:45:23;7.88;;;4.38;;
65656;SDS011;57397;50.096;14.404;2023-01-29T16:48:00;6.25;;;4.07;;
65656;SDS011;57397;50.096;14.404;2023-01-29T16:50:33;6.82;;;3.85;;
65656;SDS011;57397;50.096;14.404;2023-01-29T16:55:42;7.03;;;3.97;;
65656;SDS011;57397;50.096;14.404;2023-01-29T16:58:23;7.43;;;4.55;;
65656;SDS011;57397;50.096;14.404;2023-01-29T17:01:15;8.88;;;5.10;;
65656;SDS011;57397;50.096;14.404;2023-01-29T17:03:40;7.00;;;4.43;;
65656;SDS011;57397;50.096;14.404;2023-01-29T17:06:20;6.90;;;4.25;;
65656;SDS011;57397;50.096;14.404;2023-01-29T17:08:47;6.72;;;4.20;;
65656;SDS011;57397;50.096;14.404;2023-01-29T17:11:24;6.07;;;4.10;;
65656;SDS011;57397;50.096;14.404;2023-01-29T17:14:16;6.50;;;3.85;;
65656;SDS011;57397;50.096;14.404;2023-01-29T17:16:53;12.88;;;5.72;;
65656;SDS011;57397;50.096;14.404;2023-01-29T17:19:20;13.18;;;5.88;;
65656;SDS011;57397;50.096;14.404;2023-01-29T17:21:47;11.40;;;5.97;;
65656;SDS011;57397;50.096;14.404;2023-01-29T17:24:13;9.70;;;5.50;;
65656;SDS011;57397;50.096;14.404;2023-01-29T17:26:38;8.20;;;4.65;;
65656;SDS011;57397;50.096;14.404;2023-01-29T17:29:04;9.23;;;4.78;;
65656;SDS011;57397;50.096;14.404;2023-01-29T17:31:32;8.95;;;4.95;;
65656;SDS011;57397;50.096;14.404;2023-01-29T17:33:57;7.22;;;4.40;;